Decoded Metar for YSTW (TAMWORTH in AUSTRALIA) (IATA:TMW) | Meteo·Mobile Aviation Weather
aviador You're here:

YSTW Decoded Metar

TAMWORTH in AUSTRALIA
Report Time2019-01-17 01:00:00
UTC Time2019-01-17 01:21:10
Flight Rules vfr VFR
Wind350° at 06 kt
W.Decomp.*RWY 36: 5.6 kt HW 2.2 kt LCW
RWY 30: 4.7 kt HW 3.8 kt RCW
RWY 06: 0.9 kt HW 5.9 kt LCW
W.Rank350° ranks 9
Current wind is below 350° avg. (8.2)
Visibility9999 m
Phenomena:N/A
Clouds:N/A
Expected CloudBase > 10,400 ft AGL from Temp-Dew spread
CeilingNone
Temp36°C (ISA +24)
Dew Point10°C (20% RH)
Heat Index34.2°C
AAT33.7°C
QNH1013 hPa
Density Alt4,186 ft
Elevation1,345 ft
Report Wrong Elevation
Raw Report
YSTW 170100Z AUTO 35006KT 320V030 9999 // NCD 36/10 Q1013
RF00.0/000.0=

Extra information for YSTW:More info

Metar Taf Metar & Taf Last 4 Metars F.Rules Stats Wind Profile Meteogram Temp Stats Airport Information Weather charts Add Link Nearby VenuesMetar ALERT Operation Metar Decoded Social comments